Time;durP1;ratioP1;P1;durP2;ratioP2;P2;SDS_P1;SDS_P2;PMS_P1;PMS_P2;Temp;Humidity;BMP_temperature;BMP_pressure;BME280_temperature;BME280_humidity;BME280_pressure;Samples;Min_cycle;Max_cycle;Signal;HPM_P1;HPM_P2
2022/10/29 00:02:04;;;;;;;34.35;22.75;;;;;;;13.20;88.15;100515.55;1755619;80;21255;-74
2022/10/29 00:04:30;;;;;;;26.02;21.97;;;;;;;13.23;88.10;100515.59;1724771;81;21015;-75
2022/10/29 00:06:58;;;;;;;33.58;22.77;;;;;;;13.22;88.06;100505.33;1760590;80;21005;-76
2022/10/29 00:09:25;;;;;;;28.35;22.02;;;;;;;13.22;88.03;100496.40;1778149;80;21019;-75
2022/10/29 00:11:52;;;;;;;29.40;21.73;;;;;;;13.21;88.11;100494.75;1785349;80;20988;-75
2022/10/29 00:14:20;;;;;;;30.88;23.18;;;;;;;13.20;88.22;100491.23;1754413;81;21149;-75
2022/10/29 00:16:47;;;;;;;37.42;24.57;;;;;;;13.20;88.38;100485.01;1754299;81;20980;-74
2022/10/29 00:19:15;;;;;;;31.70;22.30;;;;;;;13.20;88.46;100479.08;1724737;82;21068;-73
2022/10/29 00:21:41;;;;;;;31.97;22.30;;;;;;;13.23;88.52;100476.43;1755902;81;20993;-74
2022/10/29 00:24:09;;;;;;;36.13;22.30;;;;;;;13.25;88.36;100475.63;1751546;81;21070;-75
2022/10/29 00:26:37;;;;;;;31.48;24.52;;;;;;;13.21;88.27;100467.21;1728384;79;21107;-73
2022/10/29 00:29:03;;;;;;;40.28;27.73;;;;;;;13.16;88.35;100468.48;1799347;79;21536;-74
2022/10/29 00:31:30;;;;;;;32.23;22.98;;;;;;;13.10;88.47;100464.03;1787307;80;21023;-75
2022/10/29 00:33:56;;;;;;;37.48;23.32;;;;;;;13.07;88.63;100467.23;1784293;78;21544;-76
2022/10/29 00:36:25;;;;;;;37.30;23.35;;;;;;;13.05;88.85;100467.48;1785374;78;21635;-73
2022/10/29 00:38:52;;;;;;;30.65;22.95;;;;;;;13.04;89.06;100467.19;1784259;80;21945;-74
2022/10/29 00:41:29;;;;;;;29.42;22.85;;;;;;;13.06;89.25;100472.34;1783375;80;20962;-73
2022/10/29 00:44:21;;;;;;;27.70;22.82;;;;;;;13.11;89.28;100463.00;1755855;81;20893;-73
2022/10/29 00:46:51;;;;;;;41.18;23.95;;;;;;;13.10;89.18;100458.10;1777576;80;20888;-71
2022/10/29 00:49:18;;;;;;;29.82;21.45;;;;;;;13.09;89.16;100457.02;1772602;80;21036;-71
2022/10/29 00:51:45;;;;;;;36.00;24.72;;;;;;;13.06;89.22;100450.21;1755819;81;21264;-72
2022/10/29 00:54:13;;;;;;;39.65;25.82;;;;;;;13.03;89.21;100445.84;1777343;80;20984;-72
2022/10/29 00:56:45;;;;;;;35.78;23.18;;;;;;;13.00;89.37;100450.37;1774710;80;20963;-73
2022/10/29 00:59:11;;;;;;;36.98;24.70;;;;;;;12.95;89.62;100446.27;1730722;81;20999;-72
2022/10/29 01:01:38;;;;;;;35.17;24.70;;;;;;;12.92;89.87;100448.09;1793307;80;20931;-73
2022/10/29 01:04:05;;;;;;;31.62;22.67;;;;;;;12.93;90.08;100448.39;1789574;80;22013;-74
2022/10/29 01:06:31;;;;;;;27.37;22.60;;;;;;;12.96;90.22;100450.05;1760836;80;21059;-74
2022/10/29 01:08:58;;;;;;;28.00;20.32;;;;;;;12.95;90.18;100441.66;1782740;80;20932;-74
2022/10/29 01:11:45;;;;;;;35.58;23.85;;;;;;;12.93;90.30;100433.54;1791145;80;21082;-73
2022/10/29 01:14:33;;;;;;;36.65;21.05;;;;;;;12.90;90.37;100433.48;1782145;78;20976;-74
2022/10/29 01:17:31;;;;;;;29.72;22.48;;;;;;;12.86;90.58;100429.65;1763392;80;21118;-74
2022/10/29 01:20:15;;;;;;;26.85;21.82;;;;;;;12.82;90.79;100435.26;1761737;81;20940;-74
2022/10/29 01:23:14;;;;;;;28.67;19.92;;;;;;;12.79;91.05;100429.02;1740078;80;21469;-74
2022/10/29 01:26:08;;;;;;;24.25;20.80;;;;;;;12.79;91.36;100433.59;1790979;80;21092;-74
2022/10/29 01:28:55;;;;;;;28.45;19.87;;;;;;;12.80;91.47;100433.35;1789844;78;21027;-73
2022/10/29 01:31:50;;;;;;;34.70;21.68;;;;;;;12.83;91.51;100434.73;1714062;81;21284;-74
2022/10/29 01:34:38;;;;;;;25.80;21.50;;;;;;;12.82;91.51;100437.95;1735003;82;21296;-74
2022/10/29 01:37:18;;;;;;;21.27;18.95;;;;;;;12.81;91.43;100436.84;1737723;80;22313;-73
2022/10/29 01:40:13;;;;;;;27.70;19.45;;;;;;;12.76;91.38;100436.80;1695411;81;22315;-74
2022/10/29 01:43:07;;;;;;;23.95;18.48;;;;;;;12.70;91.62;100440.47;1759372;80;21012;-75
2022/10/29 01:45:41;;;;;;;22.73;19.00;;;;;;;12.64;91.88;100443.61;1703838;83;21494;-73
2022/10/29 01:48:13;;;;;;;25.77;20.48;;;;;;;12.63;92.26;100435.22;1781219;79;22210;-74
2022/10/29 01:50:43;;;;;;;27.73;20.00;;;;;;;12.65;92.25;100431.23;1780333;80;21521;-73
2022/10/29 01:53:09;;;;;;;24.85;19.95;;;;;;;12.65;92.35;100428.53;1772463;80;21593;-73
2022/10/29 01:55:36;;;;;;;31.60;21.97;;;;;;;12.63;92.27;100425.77;1739647;81;21087;-74
2022/10/29 01:58:06;;;;;;;23.20;18.73;;;;;;;12.57;92.36;100424.87;1749863;81;21223;-73
2022/10/29 02:00:57;;;;;;;31.50;20.45;;;;;;;12.52;92.50;100423.96;1777282;80;21268;-74
2022/10/29 02:03:35;;;;;;;30.72;20.75;;;;;;;12.46;92.68;100421.73;1692565;83;21062;-75
2022/10/29 02:06:37;;;;;;;21.95;18.62;;;;;;;12.42;93.18;100421.12;1756104;81;21074;-74
2022/10/29 02:09:23;;;;;;;23.90;17.77;;;;;;;12.41;93.54;100414.08;1782648;80;21094;-74
2022/10/29 02:12:00;;;;;;;23.85;19.52;;;;;;;12.41;93.69;100417.59;1754460;81;21243;-75
2022/10/29 02:14:34;;;;;;;22.50;18.37;;;;;;;12.38;93.88;100427.51;1761543;80;21015;-74
2022/10/29 02:17:01;;;;;;;23.92;17.85;;;;;;;12.35;94.10;100414.52;1734615;81;21051;-75
2022/10/29 02:19:31;;;;;;;20.65;17.70;;;;;;;12.32;94.19;100416.89;1759002;81;20930;-75
2022/10/29 02:21:58;;;;;;;24.63;18.05;;;;;;;12.28;94.33;100410.36;1751489;80;21059;-75
2022/10/29 02:24:25;;;;;;;26.42;18.48;;;;;;;12.25;94.59;100406.25;1747822;82;21135;-74
2022/10/29 02:26:51;;;;;;;27.00;19.02;;;;;;;12.23;94.77;100401.61;1747604;82;21011;-75
2022/10/29 02:29:18;;;;;;;28.90;17.32;;;;;;;12.24;94.99;100399.20;1816412;78;20988;-75
2022/10/29 02:31:45;;;;;;;23.12;18.23;;;;;;;12.27;95.04;100392.00;1756745;80;21102;-75
2022/10/29 02:34:13;;;;;;;20.92;18.60;;;;;;;12.28;95.02;100397.66;1780378;80;21075;-74
2022/10/29 02:36:41;;;;;;;25.12;19.17;;;;;;;12.30;94.92;100391.50;1753035;80;21123;-75
2022/10/29 02:39:08;;;;;;;28.57;19.30;;;;;;;12.30;94.87;100395.55;1756031;81;20919;-75
2022/10/29 02:41:36;;;;;;;21.30;17.37;;;;;;;12.30;94.76;100387.98;1755791;81;21553;-75
2022/10/29 02:44:02;;;;;;;23.27;17.90;;;;;;;12.30;94.78;100381.23;1745164;80;21519;-75
2022/10/29 02:46:30;;;;;;;26.17;17.90;;;;;;;12.32;94.63;100387.22;1748818;80;21000;-74
2022/10/29 02:48:56;;;;;;;21.37;17.98;;;;;;;12.32;94.61;100385.87;1776896;80;22012;-74
2022/10/29 02:51:23;;;;;;;21.97;17.45;;;;;;;12.32;94.61;100383.17;1774182;80;22494;-75
2022/10/29 02:53:49;;;;;;;22.93;18.98;;;;;;;12.32;94.50;100381.30;1756015;81;21544;-74
2022/10/29 02:56:16;;;;;;;25.10;18.52;;;;;;;12.31;94.44;100378.84;1778435;80;21583;-74
2022/10/29 02:58:42;;;;;;;23.02;18.02;;;;;;;12.29;94.34;100379.07;1769726;78;21050;-74
2022/10/29 03:01:09;;;;;;;23.77;16.12;;;;;;;12.26;94.29;100380.92;1764456;80;21442;-73
2022/10/29 03:03:36;;;;;;;27.93;18.98;;;;;;;12.22;94.35;100378.42;1755903;81;21021;-74
2022/10/29 03:06:04;;;;;;;25.05;19.25;;;;;;;12.19;94.48;100377.02;1768329;80;21044;-73
2022/10/29 03:08:31;;;;;;;22.60;17.48;;;;;;;12.19;94.62;100378.36;1726784;81;21018;-73
2022/10/29 03:10:58;;;;;;;23.50;17.52;;;;;;;12.22;94.68;100381.95;1782386;80;21083;-73
2022/10/29 03:13:24;;;;;;;18.52;16.30;;;;;;;12.23;94.34;100388.12;1780595;80;21164;-73
2022/10/29 03:15:51;;;;;;;25.17;17.12;;;;;;;12.21;94.29;100386.22;1755652;81;20932;-73
2022/10/29 03:18:18;;;;;;;22.60;17.80;;;;;;;12.17;94.21;100381.85;1755909;81;21050;-71
2022/10/29 03:20:46;;;;;;;24.63;18.15;;;;;;;12.12;94.19;100389.85;1726490;80;21018;-72
2022/10/29 03:23:14;;;;;;;23.60;16.10;;;;;;;12.06;94.36;100382.72;1756244;81;21074;-73
2022/10/29 03:25:41;;;;;;;17.77;16.00;;;;;;;12.03;94.52;100373.78;1755868;81;21152;-73
2022/10/29 03:28:08;;;;;;;21.60;15.58;;;;;;;12.01;94.61;100366.98;1757153;80;21309;-73
2022/10/29 03:30:35;;;;;;;24.70;18.00;;;;;;;11.98;94.79;100366.95;1747788;81;21004;-71
2022/10/29 03:33:02;;;;;;;26.73;17.73;;;;;;;11.98;94.84;100363.44;1737434;82;21060;-72
2022/10/29 03:35:28;;;;;;;22.30;18.02;;;;;;;11.96;94.82;100360.16;1737770;81;20961;-72
2022/10/29 03:37:55;;;;;;;19.70;16.37;;;;;;;11.95;94.90;100347.72;1743066;81;21124;-72
2022/10/29 03:40:21;;;;;;;22.45;18.02;;;;;;;11.94;94.68;100351.50;1691431;84;21050;-72
2022/10/29 03:42:49;;;;;;;25.82;18.12;;;;;;;11.90;94.74;100344.94;1719705;81;20940;-71
2022/10/29 03:45:16;;;;;;;17.73;16.02;;;;;;;11.88;94.80;100348.42;1739447;81;21549;-72
2022/10/29 03:47:42;;;;;;;23.10;18.82;;;;;;;11.87;94.95;100346.25;1726066;80;20990;-72
2022/10/29 03:50:09;;;;;;;27.22;19.48;;;;;;;11.90;95.09;100339.02;1728478;81;21070;-73
2022/10/29 03:52:38;;;;;;;31.73;24.52;;;;;;;11.93;94.84;100333.16;1734435;82;20977;-73
2022/10/29 03:55:07;;;;;;;30.48;22.90;;;;;;;11.93;94.77;100339.91;1728850;83;21019;-73
2022/10/29 03:57:34;;;;;;;35.33;23.02;;;;;;;11.94;94.64;100347.46;1715382;83;22313;-73
2022/10/29 04:00:03;;;;;;;32.00;22.45;;;;;;;11.94;94.35;100342.86;1730171;82;21508;-73
2022/10/29 04:02:31;;;;;;;26.30;20.92;;;;;;;11.91;94.13;100330.41;1741415;82;21572;-72
2022/10/29 04:04:58;;;;;;;26.57;21.57;;;;;;;11.90;94.18;100332.28;1730875;80;21485;-72
2022/10/29 04:07:24;;;;;;;25.72;22.98;;;;;;;11.91;94.17;100322.31;1780627;80;22117;-72
2022/10/29 04:09:51;;;;;;;26.93;21.23;;;;;;;11.89;94.00;100319.06;1720203;82;21030;-72
2022/10/29 04:12:18;;;;;;;31.07;21.85;;;;;;;11.88;93.92;100318.77;1730528;80;21025;-72
2022/10/29 04:14:47;;;;;;;28.38;20.40;;;;;;;11.85;93.70;100328.14;1729970;81;21598;-72
2022/10/29 04:17:13;;;;;;;24.50;19.82;;;;;;;11.80;93.60;100330.22;1731664;81;21077;-71
2022/10/29 04:19:40;;;;;;;23.77;19.57;;;;;;;11.71;93.68;100319.52;1704011;81;21023;-70
2022/10/29 04:22:07;;;;;;;23.47;18.87;;;;;;;11.67;93.90;100320.23;1721907;81;20981;-71
2022/10/29 04:24:34;;;;;;;25.85;20.65;;;;;;;11.60;94.13;100316.36;1720615;81;20979;-71
2022/10/29 04:27:00;;;;;;;21.87;18.40;;;;;;;11.57;94.39;100310.62;1726789;81;21364;-71
2022/10/29 04:29:27;;;;;;;22.37;18.95;;;;;;;11.55;94.57;100316.27;1746342;80;21027;-72
2022/10/29 04:31:54;;;;;;;20.97;18.27;;;;;;;11.50;94.61;100319.39;1757988;81;21049;-72
2022/10/29 04:34:20;;;;;;;24.43;19.05;;;;;;;11.43;94.68;100318.70;1730510;80;20936;-70
2022/10/29 04:36:47;;;;;;;20.12;16.30;;;;;;;11.35;94.93;100311.83;1727897;82;21052;-71
2022/10/29 04:39:14;;;;;;;20.70;17.90;;;;;;;11.26;95.21;100315.96;1756462;80;21050;-71
2022/10/29 04:41:40;;;;;;;20.00;17.20;;;;;;;11.17;95.50;100325.47;1758116;81;20991;-71
2022/10/29 04:44:07;;;;;;;18.52;16.20;;;;;;;11.10;95.89;100331.50;1755301;80;21030;-72
2022/10/29 04:46:34;;;;;;;20.75;17.73;;;;;;;11.02;96.45;100324.63;1763537;80;21010;-72
2022/10/29 04:49:01;;;;;;;19.75;17.50;;;;;;;10.98;96.94;100330.72;1753338;81;21037;-71
2022/10/29 04:51:27;;;;;;;22.27;18.07;;;;;;;10.96;97.42;100326.91;1750419;80;21168;-71
2022/10/29 04:53:54;;;;;;;23.10;17.23;;;;;;;10.96;97.73;100330.12;1786876;80;20921;-73
2022/10/29 04:56:20;;;;;;;22.67;18.55;;;;;;;10.94;97.86;100336.55;1786013;80;21367;-72
2022/10/29 04:58:52;;;;;;;22.30;17.60;;;;;;;10.90;97.92;100334.05;1778135;80;20951;-73
2022/10/29 05:01:18;;;;;;;22.40;17.57;;;;;;;10.84;98.34;100337.67;1742736;81;21067;-73
2022/10/29 05:03:45;;;;;;;28.83;19.17;;;;;;;10.82;98.72;100325.52;1736856;81;21147;-72
2022/10/29 05:06:11;;;;;;;23.12;20.40;;;;;;;10.81;99.01;100323.88;1747470;81;22183;-73
2022/10/29 05:08:38;;;;;;;23.70;17.57;;;;;;;10.81;99.35;100319.33;1774176;79;20924;-72
2022/10/29 05:11:04;;;;;;;28.92;19.45;;;;;;;10.84;99.49;100313.98;1748606;80;21222;-73
2022/10/29 05:13:33;;;;;;;27.22;17.77;;;;;;;10.85;99.43;100312.41;1786035;80;21055;-73
2022/10/29 05:16:01;;;;;;;19.87;16.82;;;;;;;10.88;99.53;100309.27;1802838;78;21151;-72
2022/10/29 05:18:27;;;;;;;27.45;19.25;;;;;;;10.88;99.32;100303.06;1737060;81;20948;-73
2022/10/29 05:20:56;;;;;;;21.05;16.93;;;;;;;10.85;99.30;100307.55;1769082;80;21004;-72
2022/10/29 05:23:22;;;;;;;23.47;18.12;;;;;;;10.83;99.36;100306.98;1778438;80;21008;-71
2022/10/29 05:25:50;;;;;;;28.07;16.67;;;;;;;10.84;99.36;100305.91;1726522;81;21059;-73
2022/10/29 05:28:20;;;;;;;21.60;17.87;;;;;;;10.85;99.43;100307.55;1781792;80;21169;-72
2022/10/29 05:30:48;;;;;;;21.12;17.40;;;;;;;10.89;99.47;100302.80;1775831;78;22148;-72
2022/10/29 05:33:21;;;;;;;18.25;16.10;;;;;;;10.94;99.42;100300.75;1800426;78;20987;-72
2022/10/29 05:35:48;;;;;;;29.12;18.62;;;;;;;10.96;99.20;100300.52;1785260;79;20977;-71
2022/10/29 05:38:15;;;;;;;26.77;18.50;;;;;;;10.96;98.99;100306.72;1783665;79;21066;-71
2022/10/29 05:40:43;;;;;;;24.63;18.73;;;;;;;10.95;98.69;100318.54;1755782;81;21813;-71
2022/10/29 05:43:12;;;;;;;24.77;19.48;;;;;;;10.94;98.60;100322.28;1783387;80;21066;-71
2022/10/29 05:45:40;;;;;;;20.00;16.48;;;;;;;10.93;98.64;100318.77;1769635;80;21025;-74
2022/10/29 05:48:06;;;;;;;22.27;17.45;;;;;;;10.92;98.66;100311.77;1756879;80;20900;-73
2022/10/29 05:50:33;;;;;;;23.32;16.23;;;;;;;10.93;98.64;100312.03;1772285;80;21038;-73
2022/10/29 05:53:03;;;;;;;19.55;16.57;;;;;;;10.98;98.77;100309.19;1732974;81;21012;-73
2022/10/29 05:55:31;;;;;;;20.82;16.70;;;;;;;10.99;98.60;100309.45;1747334;81;21003;-73
2022/10/29 05:58:03;;;;;;;19.20;16.20;;;;;;;10.98;98.48;100304.63;1786377;80;20948;-74
2022/10/29 06:00:32;;;;;;;20.40;17.00;;;;;;;10.98;98.52;100304.63;1786169;78;20997;-72
2022/10/29 06:02:59;;;;;;;18.27;15.63;;;;;;;10.97;98.54;100290.05;1733140;81;21501;-73
2022/10/29 06:05:26;;;;;;;28.00;16.35;;;;;;;10.97;98.48;100289.53;1751877;80;21547;-72
2022/10/29 06:07:55;;;;;;;23.25;18.92;;;;;;;10.97;98.62;100296.26;1769788;80;20951;-73
2022/10/29 06:10:23;;;;;;;23.25;18.07;;;;;;;11.02;98.81;100295.02;1776693;80;21494;-71
2022/10/29 06:12:49;;;;;;;23.25;18.07;;;;;;;11.07;98.59;100295.13;1803667;78;21063;-73
2022/10/29 06:15:18;;;;;;;20.92;18.45;;;;;;;11.09;98.46;100294.86;1756039;80;21010;-73
2022/10/29 06:17:46;;;;;;;24.63;18.85;;;;;;;11.10;98.30;100293.81;1755973;80;21088;-72
2022/10/29 06:20:15;;;;;;;29.82;19.37;;;;;;;11.07;98.13;100290.27;1756827;80;21092;-72
2022/10/29 06:22:43;;;;;;;27.75;20.15;;;;;;;11.06;98.31;100294.00;1761530;80;21017;-73
2022/10/29 06:25:10;;;;;;;26.40;19.50;;;;;;;11.10;98.62;100295.98;1782072;80;20966;-71
2022/10/29 06:27:38;;;;;;;25.32;19.67;;;;;;;11.18;98.81;100292.91;1767133;80;21038;-73
2022/10/29 06:30:07;;;;;;;25.27;20.32;;;;;;;11.25;98.57;100284.17;1753767;81;21156;-73
2022/10/29 06:32:35;;;;;;;25.80;20.57;;;;;;;11.32;98.50;100278.63;1783959;80;22154;-73
2022/10/29 06:35:02;;;;;;;29.55;20.23;;;;;;;11.41;98.44;100285.82;1762323;80;21817;-72
2022/10/29 06:37:32;;;;;;;29.85;21.77;;;;;;;11.45;97.93;100281.58;1774651;80;21083;-73
2022/10/29 06:39:56;;;;;;;28.15;20.40;;;;;;;11.47;97.90;100282.96;1779254;80;20977;-72
2022/10/29 06:42:23;;;;;;;29.77;21.27;;;;;;;11.51;97.80;100277.93;1771200;80;21821;-73
2022/10/29 06:44:50;;;;;;;36.88;19.92;;;;;;;11.57;97.93;100264.29;1775592;80;22150;-72
2022/10/29 06:47:17;;;;;;;31.12;22.40;;;;;;;11.65;97.82;100257.71;1758220;80;21498;-73
2022/10/29 06:49:44;;;;;;;26.80;20.82;;;;;;;11.72;97.52;100257.02;1774511;80;21566;-73
2022/10/29 06:52:11;;;;;;;29.20;24.75;;;;;;;11.77;97.06;100260.64;1748186;80;21587;-72
2022/10/29 06:54:38;;;;;;;34.70;24.70;;;;;;;11.82;96.93;100259.09;1776622;78;22098;-74
2022/10/29 06:57:05;;;;;;;35.68;25.45;;;;;;;11.87;96.47;100261.88;1787155;80;20949;-72
2022/10/29 06:59:33;;;;;;;35.55;23.30;;;;;;;11.88;96.40;100260.30;1780689;80;20960;-73
2022/10/29 07:02:00;;;;;;;25.82;20.72;;;;;;;11.92;96.37;100249.83;1781997;80;21556;-72
2022/10/29 07:04:26;;;;;;;48.08;28.92;;;;;;;11.97;96.32;100239.95;1788128;78;21056;-73
2022/10/29 07:06:53;;;;;;;40.85;25.25;;;;;;;12.01;96.03;100234.34;1786391;80;21134;-73
2022/10/29 07:09:20;;;;;;;39.67;21.97;;;;;;;12.06;95.71;100227.69;1786065;78;20983;-73
2022/10/29 07:11:47;;;;;;;31.87;23.18;;;;;;;12.12;95.40;100233.98;1764729;80;21025;-73
2022/10/29 07:14:15;;;;;;;36.48;25.82;;;;;;;12.12;94.93;100225.89;1761760;80;21066;-72
2022/10/29 07:16:42;;;;;;;41.92;25.92;;;;;;;12.15;94.82;100236.17;1725212;81;21079;-73
2022/10/29 07:19:09;;;;;;;34.53;24.20;;;;;;;12.17;94.74;100230.02;1724632;81;21144;-73
2022/10/29 07:21:35;;;;;;;42.98;27.90;;;;;;;12.20;94.14;100228.16;1727497;81;21076;-72
2022/10/29 07:24:02;;;;;;;41.55;25.72;;;;;;;12.18;94.14;100230.30;1751753;81;21043;-71
2022/10/29 07:26:30;;;;;;;34.45;24.67;;;;;;;12.21;93.93;100229.80;1798540;79;21406;-71
2022/10/29 07:28:56;;;;;;;40.83;25.55;;;;;;;12.25;93.86;100229.59;1747290;80;21042;-71
2022/10/29 07:31:23;;;;;;;38.42;26.33;;;;;;;12.33;93.80;100231.03;1724483;80;21131;-74
2022/10/29 07:33:50;;;;;;;43.40;27.85;;;;;;;12.36;93.30;100229.21;1767968;80;20988;-73
2022/10/29 07:36:17;;;;;;;44.53;26.48;;;;;;;12.40;93.37;100234.39;1732000;80;21025;-74
2022/10/29 07:38:43;;;;;;;37.93;25.55;;;;;;;12.45;93.15;100231.77;1756833;80;21031;-72
2022/10/29 07:41:10;;;;;;;60.40;31.77;;;;;;;12.42;92.57;100233.06;1761136;80;20996;-73
2022/10/29 07:43:37;;;;;;;63.17;35.75;;;;;;;12.41;92.48;100230.10;1766852;80;21093;-74
2022/10/29 07:46:04;;;;;;;67.95;35.43;;;;;;;12.43;92.61;100225.78;1757085;80;20955;-73
2022/10/29 07:48:31;;;;;;;44.98;28.20;;;;;;;12.47;92.39;100221.55;1724526;83;21914;-73
2022/10/29 07:50:59;;;;;;;52.60;27.87;;;;;;;12.50;92.14;100229.95;1724622;82;21053;-73
2022/10/29 07:53:26;;;;;;;37.30;25.68;;;;;;;12.50;91.69;100224.56;1753533;80;21032;-73
2022/10/29 07:55:55;;;;;;;38.90;26.57;;;;;;;12.49;91.49;100222.09;1740680;81;21146;-71
2022/10/29 07:58:24;;;;;;;32.90;23.85;;;;;;;12.46;91.64;100222.08;1760379;81;21047;-71
2022/10/29 08:00:51;;;;;;;31.10;21.80;;;;;;;12.49;91.79;100230.19;1767621;81;21031;-73
2022/10/29 08:03:17;;;;;;;36.58;23.25;;;;;;;12.53;91.60;100231.32;1762124;81;21006;-72
2022/10/29 08:05:46;;;;;;;38.95;27.05;;;;;;;12.55;91.64;100230.55;1768261;81;21043;-73
2022/10/29 08:08:16;;;;;;;40.17;25.62;;;;;;;12.61;91.46;100223.61;1737437;81;21894;-71
2022/10/29 08:10:43;;;;;;;35.75;23.45;;;;;;;12.67;91.34;100237.45;1737254;82;21508;-72
2022/10/29 08:13:09;;;;;;;28.17;21.87;;;;;;;12.74;91.04;100231.06;1756909;79;21019;-69
2022/10/29 08:15:37;;;;;;;28.12;20.68;;;;;;;12.77;90.61;100240.83;1765144;81;21576;-71
2022/10/29 08:18:12;;;;;;;42.60;25.43;;;;;;;12.78;90.54;100235.71;1766959;81;21035;-69
2022/10/29 08:20:39;;;;;;;34.90;22.80;;;;;;;12.81;90.29;100236.55;1726976;81;21143;-70
2022/10/29 08:23:07;;;;;;;34.83;21.35;;;;;;;12.86;90.14;100235.80;1754513;81;20935;-71
2022/10/29 08:25:39;;;;;;;37.73;20.32;;;;;;;12.92;90.04;100236.97;1785321;80;20933;-69
2022/10/29 08:28:04;;;;;;;31.10;20.08;;;;;;;13.00;89.50;100227.59;1728008;81;20953;-72
2022/10/29 08:30:31;;;;;;;30.20;21.45;;;;;;;13.03;89.31;100214.42;1755419;81;21040;-74
2022/10/29 08:32:59;;;;;;;33.42;22.85;;;;;;;13.10;89.33;100210.16;1755809;79;20985;-72
2022/10/29 08:35:27;;;;;;;41.55;25.12;;;;;;;13.19;89.28;100210.02;1737428;81;21054;-74
2022/10/29 08:37:53;;;;;;;29.77;20.23;;;;;;;13.30;89.09;100208.24;1737569;82;21191;-74
2022/10/29 08:40:33;;;;;;;39.80;22.77;;;;;;;13.34;88.14;100200.72;1735535;81;21192;-72
2022/10/29 08:43:48;;;;;;;31.93;19.48;;;;;;;13.39;88.00;100210.23;1741003;81;21012;-73
2022/10/29 08:46:39;;;;;;;25.70;21.02;;;;;;;13.48;87.76;100200.59;1751798;81;21366;-73
2022/10/29 08:49:22;;;;;;;33.55;19.27;;;;;;;13.59;87.30;100208.25;1729590;81;20940;-75
2022/10/29 08:51:58;;;;;;;30.37;17.77;;;;;;;13.67;87.02;100207.77;1745151;81;21066;-71
2022/10/29 08:54:27;;;;;;;34.10;21.02;;;;;;;13.72;86.52;100205.12;1728583;83;21559;-74
2022/10/29 08:56:54;;;;;;;30.40;19.42;;;;;;;13.78;86.33;100197.34;1728797;83;21583;-72
2022/10/29 08:59:26;;;;;;;25.17;18.35;;;;;;;13.82;85.87;100194.39;1748150;81;21284;-72
2022/10/29 09:01:52;;;;;;;36.73;21.10;;;;;;;13.87;85.76;100183.61;1742971;80;20979;-70
2022/10/29 09:04:34;;;;;;;30.17;18.73;;;;;;;13.98;85.84;100185.86;1728667;83;21011;-72
2022/10/29 09:07:09;;;;;;;33.67;21.45;;;;;;;14.09;85.40;100179.45;1737568;81;21028;-72
2022/10/29 09:09:44;;;;;;;22.40;16.95;;;;;;;14.21;85.29;100187.36;1758751;81;21051;-72
2022/10/29 09:12:22;;;;;;;28.62;20.32;;;;;;;14.30;84.66;100180.37;1746066;81;21873;-73
2022/10/29 09:15:24;;;;;;;26.73;16.50;;;;;;;14.37;84.28;100174.23;1735998;81;20976;-70
2022/10/29 09:18:22;;;;;;;33.67;18.70;;;;;;;14.43;83.50;100175.89;1735605;81;21520;-75
2022/10/29 09:21:11;;;;;;;37.98;21.07;;;;;;;14.51;83.29;100178.09;1745926;81;21028;-73
2022/10/29 09:24:04;;;;;;;36.53;19.50;;;;;;;14.60;82.94;100168.91;1758707;80;20995;-76
2022/10/29 09:26:34;;;;;;;;;;;;;;;14.70;82.77;100167.61;1734190;80;21111;-73
2022/10/29 09:29:30;;;;;;;38.38;20.60;;;;;;;14.77;82.17;100159.50;1769190;80;20161;-79
2022/10/29 09:32:07;;;;;;;33.92;19.42;;;;;;;14.86;81.92;100154.94;1784680;80;20951;-71
2022/10/29 09:34:46;;;;;;;48.20;21.60;;;;;;;14.91;81.17;100156.31;1780791;80;20990;-75
2022/10/29 09:37:21;;;;;;;23.52;16.62;;;;;;;14.97;80.85;100151.16;1775675;80;21012;-75
2022/10/29 09:39:48;;;;;;;31.42;18.32;;;;;;;15.03;80.73;100141.97;1761494;80;22154;-74
2022/10/29 09:42:37;;;;;;;27.02;18.02;;;;;;;15.10;80.53;100133.06;1754664;81;21032;-73
2022/10/29 09:45:10;;;;;;;32.00;21.55;;;;;;;15.16;80.08;100126.54;1778174;80;22131;-73
2022/10/29 09:48:11;;;;;;;26.85;18.05;;;;;;;15.21;79.47;100122.48;1745777;80;21023;-72
2022/10/29 09:50:49;;;;;;;29.90;18.52;;;;;;;15.25;79.49;100114.90;1779779;80;20994;-74
2022/10/29 09:53:16;;;;;;;24.18;17.20;;;;;;;15.29;79.05;100100.29;1783936;80;21161;-74
2022/10/29 09:55:45;;;;;;;24.18;15.53;;;;;;;15.34;79.14;100097.58;1720767;81;20987;-73
2022/10/29 09:58:19;;;;;;;22.40;15.85;;;;;;;15.41;78.95;100094.04;1730881;81;20993;-74
2022/10/29 10:00:46;;;;;;;29.80;17.00;;;;;;;15.49;78.89;100103.55;1766553;80;21064;-71
2022/10/29 10:03:24;;;;;;;25.27;15.40;;;;;;;15.60;78.79;100097.04;1781198;80;21513;-70
2022/10/29 10:06:03;;;;;;;28.83;14.87;;;;;;;15.74;78.17;100094.03;1782350;80;21158;-73
2022/10/29 10:08:31;;;;;;;29.67;15.28;;;;;;;15.87;77.53;100103.52;1774941;80;21027;-73
2022/10/29 10:11:03;;;;;;;23.52;15.98;;;;;;;15.95;76.96;100074.47;1771819;81;21592;-72
2022/10/29 10:13:37;;;;;;;21.75;17.10;;;;;;;16.05;76.93;100059.52;1770699;80;21015;-74
2022/10/29 10:16:05;;;;;;;20.35;15.70;;;;;;;16.13;76.27;100044.83;1756533;80;21556;-72
2022/10/29 10:18:40;;;;;;;19.57;14.93;;;;;;;16.19;75.96;100057.02;1754932;80;21080;-72
2022/10/29 10:21:11;;;;;;;20.90;16.48;;;;;;;16.23;75.80;100053.47;1787375;80;20925;-74
2022/10/29 10:23:46;;;;;;;17.27;13.70;;;;;;;16.27;75.67;100058.61;1785462;80;20980;-75
2022/10/29 10:26:35;;;;;;;17.92;14.40;;;;;;;16.30;75.47;100053.19;1776983;78;21020;-72
2022/10/29 10:29:20;;;;;;;20.65;14.30;;;;;;;16.33;75.49;100044.47;1656434;86;21093;-73
2022/10/29 10:31:59;;;;;;;17.27;15.28;;;;;;;16.37;75.26;100040.10;1678276;83;21159;-74
2022/10/29 10:34:37;;;;;;;19.25;15.05;;;;;;;16.42;74.83;100039.54;1772494;80;21024;-71
2022/10/29 10:37:12;;;;;;;19.60;15.55;;;;;;;16.40;74.71;100025.99;1743411;81;21041;-73
2022/10/29 10:39:54;;;;;;;23.10;17.05;;;;;;;16.36;74.72;100012.69;1750046;81;21020;-74
2022/10/29 10:42:35;;;;;;;24.80;16.07;;;;;;;16.34;74.74;100004.02;1753268;81;22155;-72
2022/10/29 10:45:18;;;;;;;21.02;15.85;;;;;;;16.28;74.91;100002.42;1785151;80;22219;-73
2022/10/29 10:47:52;;;;;;;20.90;13.28;;;;;;;16.23;75.28;99978.83;1734249;80;20992;-71
2022/10/29 10:50:31;;;;;;;22.15;12.82;;;;;;;16.21;75.51;99968.01;1774823;80;21021;-75
2022/10/29 10:53:03;;;;;;;21.12;15.63;;;;;;;16.20;75.59;99983.48;1764721;78;21147;-76
2022/10/29 10:55:39;;;;;;;18.67;14.55;;;;;;;16.22;75.76;99989.96;1714183;81;21078;-74
2022/10/29 10:58:28;;;;;;;20.50;14.75;;;;;;;16.24;75.95;99989.15;1784407;78;21156;-74
2022/10/29 11:01:21;;;;;;;17.27;13.88;;;;;;;16.25;76.13;99979.38;1751953;81;21011;-74
2022/10/29 11:03:51;;;;;;;14.75;12.63;;;;;;;16.26;76.21;99980.98;1745493;78;21011;-71
2022/10/29 11:06:39;;;;;;;20.48;13.80;;;;;;;16.24;76.36;99979.66;1748615;80;21017;-73
2022/10/29 11:09:21;;;;;;;17.05;13.25;;;;;;;16.25;76.57;99960.92;1742469;81;21044;-72
2022/10/29 11:11:59;;;;;;;19.65;13.93;;;;;;;16.27;76.65;99968.22;1781623;80;21101;-72
2022/10/29 11:14:42;;;;;;;18.05;12.07;;;;;;;16.28;76.76;99973.92;1787289;80;20940;-71
2022/10/29 11:17:26;;;;;;;14.98;12.28;;;;;;;16.29;76.92;99983.70;1782518;80;21188;-73
2022/10/29 11:19:58;;;;;;;21.27;12.68;;;;;;;16.33;76.94;99982.04;1732966;81;21115;-71
2022/10/29 11:22:53;;;;;;;22.27;15.75;;;;;;;16.38;76.89;99965.72;1751277;80;21031;-73
2022/10/29 11:25:30;;;;;;;17.80;14.05;;;;;;;16.44;76.77;99963.25;1749682;80;21270;-72
2022/10/29 11:28:45;;;;;;;16.67;13.78;;;;;;;16.47;76.51;99970.81;1755024;80;21455;-72
2022/10/29 11:31:50;;;;;;;16.60;13.95;;;;;;;16.46;76.40;99967.83;1764493;80;21077;-72